Time;durP1;ratioP1;P1;durP2;ratioP2;P2;SDS_P1;SDS_P2;PMS_P1;PMS_P2;Temp;Humidity;BMP_temperature;BMP_pressure;BME280_temperature;BME280_humidity;BME280_pressure;Samples;Min_cycle;Max_cycle;Signal;HPM_P1;HPM_P2
2021/08/11 00:01:49;;;;;;;7.10;4.07;;;20.60;99.90;;;;;;5070614;28;20466;-73
2021/08/11 00:04:15;;;;;;;6.18;4.00;;;20.70;99.90;;;;;;5070539;28;20033;-73
2021/08/11 00:06:40;;;;;;;9.68;3.75;;;20.60;99.90;;;;;;5070009;28;20032;-73
2021/08/11 00:09:06;;;;;;;7.70;4.15;;;20.60;99.90;;;;;;5070547;28;20045;-73
2021/08/11 00:11:33;;;;;;;7.60;4.20;;;20.50;99.90;;;;;;5069959;28;20040;-73
2021/08/11 00:13:59;;;;;;;7.20;3.53;;;20.50;99.90;;;;;;5072247;28;20082;-73
2021/08/11 00:16:25;;;;;;;6.82;4.05;;;20.30;99.90;;;;;;5074193;28;20025;-73
2021/08/11 00:18:51;;;;;;;6.95;3.63;;;20.20;99.90;;;;;;5073777;28;20036;-73
2021/08/11 00:21:17;;;;;;;6.13;3.95;;;20.00;99.90;;;;;;5074264;28;20025;-73
2021/08/11 00:23:43;;;;;;;6.35;3.60;;;20.20;99.90;;;;;;5074067;28;20039;-73
2021/08/11 00:26:09;;;;;;;7.18;3.70;;;20.30;99.90;;;;;;5073849;28;20033;-73
2021/08/11 00:28:34;;;;;;;6.65;3.83;;;20.20;99.90;;;;;;5074077;28;20028;-73
2021/08/11 00:31:01;;;;;;;6.65;4.53;;;20.40;99.90;;;;;;5074365;28;20020;-73
2021/08/11 00:33:26;;;;;;;7.00;3.63;;;20.40;99.90;;;;;;5074251;28;20150;-73
2021/08/11 00:35:52;;;;;;;6.55;3.80;;;20.30;99.90;;;;;;5073885;28;20119;-73
2021/08/11 00:38:20;;;;;;;7.40;4.00;;;20.40;99.90;;;;;;5073982;28;20555;-73
2021/08/11 00:40:46;;;;;;;6.85;3.88;;;20.30;99.90;;;;;;5074192;28;20028;-73
2021/08/11 00:43:12;;;;;;;8.70;3.72;;;20.10;99.90;;;;;;5073438;28;20020;-73
2021/08/11 00:45:39;;;;;;;7.60;4.18;;;19.90;99.90;;;;;;5073804;28;20024;-73
2021/08/11 00:48:08;;;;;;;7.85;3.95;;;19.80;99.90;;;;;;5073589;28;20081;-73
2021/08/11 00:50:34;;;;;;;7.70;3.95;;;19.80;99.90;;;;;;5073557;28;20036;-73
2021/08/11 00:53:01;;;;;;;8.18;3.83;;;19.80;99.90;;;;;;5073840;28;20029;-73
2021/08/11 00:55:28;;;;;;;9.98;3.97;;;19.80;99.90;;;;;;5073400;28;20028;-73
2021/08/11 00:57:55;;;;;;;6.97;3.72;;;19.80;99.90;;;;;;5073708;28;20377;-73
2021/08/11 01:00:22;;;;;;;7.32;4.13;;;19.90;99.90;;;;;;5073598;28;20036;-73
2021/08/11 01:02:50;;;;;;;7.43;3.97;;;19.90;99.90;;;;;;5073365;28;20024;-73
2021/08/11 01:05:18;;;;;;;7.75;4.45;;;19.80;99.90;;;;;;5073647;28;20056;-73
2021/08/11 01:07:45;;;;;;;8.75;3.67;;;19.80;99.90;;;;;;5055046;28;20039;-73
2021/08/11 01:10:12;;;;;;;8.15;4.15;;;19.80;99.90;;;;;;5073202;28;20132;-73
2021/08/11 01:12:39;;;;;;;7.57;4.20;;;19.80;99.90;;;;;;5072748;28;20074;-73
2021/08/11 01:15:06;;;;;;;6.53;4.05;;;19.70;99.90;;;;;;5073511;28;20032;-73
2021/08/11 01:17:33;;;;;;;8.25;4.90;;;19.70;99.90;;;;;;5072970;28;20044;-73
2021/08/11 01:20:03;;;;;;;10.75;4.20;;;19.70;99.90;;;;;;5072673;28;20032;-73
2021/08/11 01:22:31;;;;;;;6.22;3.83;;;19.60;99.90;;;;;;5072808;28;20016;-73
2021/08/11 01:25:12;;;;;;;8.55;4.63;;;19.50;99.90;;;;;;5054420;28;20031;-73
2021/08/11 01:28:10;;;;;;;6.85;4.45;;;19.40;99.90;;;;;;5054275;28;20458;-73
2021/08/11 01:30:38;;;;;;;8.10;4.10;;;19.50;99.90;;;;;;5004578;28;20440;-73
2021/08/11 01:33:16;;;;;;;7.68;4.57;;;19.80;99.90;;;;;;5072840;28;20035;-73
2021/08/11 01:36:10;;;;;;;8.65;4.47;;;20.00;99.90;;;;;;5072646;28;20502;-73
2021/08/11 01:38:40;;;;;;;7.88;3.75;;;19.90;99.90;;;;;;5057851;28;20037;-73
2021/08/11 01:41:09;;;;;;;7.78;4.35;;;19.90;99.90;;;;;;5072054;28;20474;-73
2021/08/11 01:43:43;;;;;;;11.35;3.90;;;19.90;99.90;;;;;;5070763;28;20025;-73
2021/08/11 01:46:12;;;;;;;5.85;4.07;;;19.60;99.90;;;;;;5070609;28;20036;-73
2021/08/11 01:48:39;;;;;;;13.45;3.97;;;19.40;99.90;;;;;;5070822;28;20028;-73
2021/08/11 01:51:07;;;;;;;7.70;3.80;;;19.40;99.90;;;;;;5070770;28;20029;-73
2021/08/11 01:53:33;;;;;;;7.55;4.00;;;19.60;99.90;;;;;;5070196;28;20378;-73
2021/08/11 01:56:00;;;;;;;6.43;4.57;;;19.80;99.90;;;;;;5070808;28;20421;-72
2021/08/11 01:58:28;;;;;;;9.05;4.25;;;19.80;99.90;;;;;;5071677;28;20374;-73
2021/08/11 02:00:59;;;;;;;5.70;3.65;;;19.70;99.90;;;;;;5072265;28;20456;-73
2021/08/11 02:03:26;;;;;;;7.75;4.20;;;19.70;99.90;;;;;;5072157;28;20028;-73
2021/08/11 02:05:53;;;;;;;7.60;4.38;;;19.90;99.90;;;;;;5072233;28;20111;-73
2021/08/11 02:08:21;;;;;;;5.38;3.60;;;20.00;99.90;;;;;;5072131;28;20056;-73
2021/08/11 02:10:48;;;;;;;8.02;3.95;;;20.10;99.90;;;;;;5054075;28;20028;-73
2021/08/11 02:13:16;;;;;;;10.02;4.43;;;20.30;99.90;;;;;;5072396;28;20025;-73
2021/08/11 02:15:42;;;;;;;9.48;5.28;;;20.30;99.90;;;;;;5072007;28;20036;-73
2021/08/11 02:18:10;;;;;;;7.60;4.28;;;20.30;99.90;;;;;;5072465;28;20067;-73
2021/08/11 02:20:35;;;;;;;7.13;3.83;;;20.30;99.90;;;;;;5071739;28;20036;-73
2021/08/11 02:23:01;;;;;;;7.63;4.22;;;20.20;99.90;;;;;;5072094;28;20134;-73
2021/08/11 02:25:27;;;;;;;8.40;4.82;;;20.10;99.90;;;;;;5053725;28;20050;-73
2021/08/11 02:28:03;;;;;;;8.43;4.32;;;20.10;99.90;;;;;;5071963;28;20110;-73
2021/08/11 02:30:49;;;;;;;6.43;3.92;;;20.00;99.90;;;;;;5071104;28;20056;-73
2021/08/11 02:33:42;;;;;;;7.88;4.57;;;20.10;99.90;;;;;;5072248;28;20035;-73
2021/08/11 02:36:27;;;;;;;8.90;4.60;;;19.80;99.90;;;;;;5071363;28;20406;-73
2021/08/11 02:38:58;;;;;;;8.18;4.57;;;19.70;99.90;;;;;;5071678;28;20028;-73
2021/08/11 02:41:34;;;;;;;8.40;4.00;;;19.80;99.90;;;;;;5063266;28;20020;-73
2021/08/11 02:44:08;;;;;;;9.05;4.40;;;19.90;99.90;;;;;;5071475;28;20592;-73
2021/08/11 02:46:38;;;;;;;;;;;19.80;99.90;;;;;;5072269;28;20021;-73
2021/08/11 02:49:07;;;;;;;11.00;4.85;;;19.40;99.90;;;;;;5071293;28;20004;-73
2021/08/11 02:51:35;;;;;;;16.38;4.57;;;19.50;99.90;;;;;;5071194;28;20033;-73
2021/08/11 02:54:10;;;;;;;15.02;4.53;;;19.70;99.90;;;;;;5071316;28;20426;-73
2021/08/11 02:56:38;;;;;;;10.55;5.75;;;19.60;99.90;;;;;;5071372;28;20059;-73
2021/08/11 02:59:04;;;;;;;6.30;4.20;;;19.60;99.90;;;;;;5070733;28;20095;-73
2021/08/11 03:01:30;;;;;;;10.93;3.85;;;19.60;99.90;;;;;;5071402;28;20503;-73
2021/08/11 03:03:59;;;;;;;7.07;3.70;;;19.80;99.90;;;;;;5058794;28;20033;-73
2021/08/11 03:06:25;;;;;;;7.30;4.43;;;20.00;99.90;;;;;;5043889;28;20037;-73
2021/08/11 03:08:51;;;;;;;7.32;3.97;;;19.90;99.90;;;;;;5047584;28;20045;-72
2021/08/11 03:11:18;;;;;;;7.68;4.47;;;19.70;99.90;;;;;;5063302;28;20160;-73
2021/08/11 03:13:45;;;;;;;8.55;4.90;;;19.70;99.90;;;;;;5063357;28;20029;-73
2021/08/11 03:16:12;;;;;;;11.15;5.13;;;19.70;99.90;;;;;;5063824;28;20085;-73
2021/08/11 03:18:38;;;;;;;8.65;3.92;;;19.80;99.90;;;;;;5063179;28;20044;-73
2021/08/11 03:21:04;;;;;;;9.35;4.68;;;19.80;99.90;;;;;;5063840;28;20108;-73
2021/08/11 03:23:30;;;;;;;7.63;4.53;;;19.80;99.90;;;;;;5063377;28;20611;-72
2021/08/11 03:25:56;;;;;;;7.90;5.05;;;19.80;99.90;;;;;;5063246;28;20020;-72
2021/08/11 03:28:22;;;;;;;12.68;5.25;;;19.80;99.90;;;;;;5063191;28;20032;-73
2021/08/11 03:30:48;;;;;;;8.02;4.53;;;19.70;99.90;;;;;;5063069;28;20466;-73
2021/08/11 03:33:14;;;;;;;8.38;4.28;;;19.90;99.90;;;;;;5063301;28;21456;-73
2021/08/11 03:35:40;;;;;;;8.02;4.40;;;20.00;99.90;;;;;;5063303;28;20040;-73
2021/08/11 03:38:06;;;;;;;15.80;5.60;;;20.00;99.90;;;;;;5062993;28;20028;-73
2021/08/11 03:40:31;;;;;;;7.07;4.30;;;20.10;99.90;;;;;;5052101;28;20064;-73
2021/08/11 03:42:57;;;;;;;12.93;4.78;;;20.20;99.90;;;;;;5062417;28;20020;-73
2021/08/11 03:45:23;;;;;;;8.05;4.60;;;20.20;99.90;;;;;;5061648;28;20055;-73
2021/08/11 03:47:49;;;;;;;9.15;4.47;;;20.20;99.90;;;;;;5062106;28;20033;-73
2021/08/11 03:50:17;;;;;;;8.52;5.03;;;19.90;99.90;;;;;;5067046;28;20492;-73
2021/08/11 03:52:43;;;;;;;9.13;4.40;;;19.90;99.90;;;;;;5066841;28;20095;-73
2021/08/11 03:55:11;;;;;;;10.57;4.45;;;19.90;99.90;;;;;;5066620;28;20108;-73
2021/08/11 03:57:37;;;;;;;8.88;4.20;;;20.00;99.90;;;;;;5066622;28;20037;-73
2021/08/11 04:00:04;;;;;;;6.85;4.55;;;20.20;99.90;;;;;;5067251;28;20090;-73
2021/08/11 04:02:30;;;;;;;8.45;4.63;;;20.00;99.90;;;;;;5067025;28;20056;-73
2021/08/11 04:04:55;;;;;;;7.75;5.00;;;20.00;99.90;;;;;;5047606;28;20055;-73
2021/08/11 04:07:21;;;;;;;5.80;4.18;;;20.20;99.90;;;;;;5054057;28;20127;-73
2021/08/11 04:09:47;;;;;;;9.15;4.80;;;20.10;99.90;;;;;;5067113;28;20052;-73
2021/08/11 04:12:12;;;;;;;6.90;4.40;;;19.80;99.90;;;;;;5066933;28;20028;-73
2021/08/11 04:14:38;;;;;;;8.00;4.50;;;19.80;99.90;;;;;;5067117;28;20094;-73
2021/08/11 04:17:04;;;;;;;9.85;4.85;;;19.80;99.90;;;;;;5067018;28;20103;-73
2021/08/11 04:19:29;;;;;;;7.03;4.55;;;19.70;99.90;;;;;;5066374;28;20035;-72
2021/08/11 04:21:55;;;;;;;6.18;3.90;;;19.50;99.90;;;;;;5066767;28;20024;-73
2021/08/11 04:24:21;;;;;;;7.20;4.35;;;19.20;99.90;;;;;;5066394;28;20750;-73
2021/08/11 04:26:46;;;;;;;6.80;4.05;;;19.40;99.90;;;;;;5066705;28;20024;-72
2021/08/11 04:29:12;;;;;;;7.65;3.95;;;19.40;99.90;;;;;;5066596;28;20036;-73
2021/08/11 04:31:38;;;;;;;8.60;4.75;;;19.40;99.90;;;;;;5066773;28;20024;-73
2021/08/11 04:34:03;;;;;;;8.95;4.38;;;19.50;99.90;;;;;;5066689;28;20470;-73
2021/08/11 04:36:29;;;;;;;9.68;4.78;;;19.50;99.90;;;;;;5066851;28;20423;-73
2021/08/11 04:38:55;;;;;;;9.52;4.03;;;19.30;99.90;;;;;;5066086;28;20479;-72
2021/08/11 04:41:20;;;;;;;8.73;4.88;;;19.40;99.90;;;;;;5066483;28;20029;-73
2021/08/11 04:43:46;;;;;;;11.50;4.65;;;19.40;99.90;;;;;;5066250;28;20609;-73
2021/08/11 04:46:12;;;;;;;8.15;5.35;;;19.40;99.90;;;;;;5067173;28;20379;-73
2021/08/11 04:48:37;;;;;;;8.88;4.35;;;19.20;99.90;;;;;;5065936;28;20024;-73
2021/08/11 04:51:04;;;;;;;9.00;4.88;;;19.20;99.90;;;;;;5066308;28;20474;-72
2021/08/11 04:53:29;;;;;;;7.22;4.72;;;19.20;99.90;;;;;;5066541;28;20032;-73
2021/08/11 04:55:55;;;;;;;7.30;4.80;;;19.40;99.90;;;;;;5066233;28;20020;-73
2021/08/11 04:58:21;;;;;;;6.30;4.25;;;19.20;99.90;;;;;;5065950;28;20021;-72
2021/08/11 05:00:46;;;;;;;10.40;4.72;;;19.40;99.90;;;;;;5066088;28;20144;-72
2021/08/11 05:03:12;;;;;;;8.80;5.00;;;19.30;99.90;;;;;;5066345;28;20024;-73
2021/08/11 05:05:41;;;;;;;7.18;4.47;;;19.30;99.90;;;;;;5065845;28;20502;-73
2021/08/11 05:08:07;;;;;;;7.57;4.38;;;19.50;99.90;;;;;;5065774;28;20100;-73
2021/08/11 05:10:33;;;;;;;7.88;4.60;;;19.50;99.90;;;;;;5065528;28;20189;-73
2021/08/11 05:12:59;;;;;;;8.73;4.47;;;19.40;99.90;;;;;;5065758;28;20038;-73
2021/08/11 05:15:25;;;;;;;7.43;5.22;;;19.50;99.90;;;;;;5065294;28;20024;-73
2021/08/11 05:17:50;;;;;;;7.07;4.32;;;19.60;99.90;;;;;;5047997;28;20021;-73
2021/08/11 05:20:18;;;;;;;8.43;4.68;;;19.50;99.90;;;;;;5065386;28;20075;-73
2021/08/11 05:22:44;;;;;;;7.95;4.72;;;19.40;99.90;;;;;;5065887;28;20013;-73
2021/08/11 05:25:10;;;;;;;7.93;4.90;;;19.30;99.90;;;;;;5065599;28;20082;-72
2021/08/11 05:27:36;;;;;;;7.38;4.03;;;19.20;99.90;;;;;;5071191;28;20047;-71
2021/08/11 05:30:05;;;;;;;11.20;5.25;;;19.30;99.90;;;;;;5064678;28;20513;-72
2021/08/11 05:32:31;;;;;;;9.63;5.35;;;19.40;99.90;;;;;;5071121;28;20063;-72
2021/08/11 05:34:57;;;;;;;6.47;4.10;;;19.50;99.90;;;;;;5066443;28;20431;-74
2021/08/11 05:37:22;;;;;;;7.95;4.03;;;19.50;99.90;;;;;;5065640;28;20047;-72
2021/08/11 05:39:48;;;;;;;7.85;4.72;;;19.70;99.90;;;;;;5065638;28;20586;-72
2021/08/11 05:42:14;;;;;;;9.20;4.05;;;19.70;99.90;;;;;;5059876;28;20032;-72
2021/08/11 05:44:39;;;;;;;8.32;4.60;;;19.60;99.90;;;;;;5065058;28;20056;-72
2021/08/11 05:47:07;;;;;;;5.88;3.83;;;19.50;99.90;;;;;;5063645;28;20091;-72
2021/08/11 05:49:36;;;;;;;9.38;5.40;;;19.70;99.90;;;;;;5063719;28;20035;-72
2021/08/11 05:52:03;;;;;;;11.80;4.82;;;19.60;99.90;;;;;;5063913;28;20021;-72
2021/08/11 05:54:29;;;;;;;8.95;4.82;;;19.50;99.90;;;;;;5063941;28;20028;-72
2021/08/11 05:56:55;;;;;;;7.25;4.82;;;19.50;99.90;;;;;;5063942;28;20020;-72
2021/08/11 05:59:21;;;;;;;8.13;4.15;;;19.60;99.90;;;;;;5063212;28;20034;-72
2021/08/11 06:01:47;;;;;;;8.57;4.30;;;19.70;99.90;;;;;;5065371;28;20024;-72
2021/08/11 06:04:13;;;;;;;8.00;4.45;;;19.80;99.90;;;;;;5065038;28;20059;-72
2021/08/11 06:06:39;;;;;;;6.43;4.03;;;20.10;99.90;;;;;;5065032;28;20431;-72
2021/08/11 06:09:04;;;;;;;10.93;5.18;;;20.30;99.90;;;;;;5064862;28;20064;-72
2021/08/11 06:11:31;;;;;;;9.02;4.93;;;20.20;99.90;;;;;;5064705;28;20024;-72
2021/08/11 06:13:57;;;;;;;8.15;4.53;;;20.10;99.90;;;;;;5065351;28;20059;-72
2021/08/11 06:16:22;;;;;;;6.40;4.18;;;20.20;99.90;;;;;;5065075;28;20052;-72
2021/08/11 06:18:48;;;;;;;6.38;4.45;;;20.30;99.90;;;;;;5064709;28;20051;-72
2021/08/11 06:21:14;;;;;;;10.15;4.20;;;20.50;99.90;;;;;;5047041;28;20024;-72
2021/08/11 06:23:40;;;;;;;12.65;5.10;;;20.70;99.90;;;;;;5065110;28;20047;-72
2021/08/11 06:26:05;;;;;;;7.68;4.78;;;20.90;99.90;;;;;;5046758;28;20097;-72
2021/08/11 06:28:31;;;;;;;6.18;3.97;;;21.10;99.90;;;;;;5064825;28;20029;-72
2021/08/11 06:30:56;;;;;;;7.93;4.55;;;21.20;99.90;;;;;;5065033;28;20439;-72
2021/08/11 06:33:22;;;;;;;7.68;4.15;;;21.30;99.90;;;;;;5064868;28;20032;-72
2021/08/11 06:35:48;;;;;;;6.68;4.22;;;21.50;99.90;;;;;;5064739;28;20039;-72
2021/08/11 06:38:14;;;;;;;7.63;4.60;;;21.70;99.90;;;;;;5064523;28;20024;-72
2021/08/11 06:40:43;;;;;;;9.13;4.95;;;21.90;99.90;;;;;;5064277;28;20031;-72
2021/08/11 06:43:08;;;;;;;8.15;4.53;;;22.10;99.90;;;;;;5064329;28;20469;-72
2021/08/11 06:45:34;;;;;;;13.35;4.82;;;22.40;99.90;;;;;;5064279;28;20052;-72
2021/08/11 06:47:59;;;;;;;11.82;5.25;;;22.50;99.90;;;;;;5064811;28;20485;-72
2021/08/11 06:50:25;;;;;;;7.13;4.65;;;22.70;99.90;;;;;;5064764;28;20536;-72
2021/08/11 06:52:51;;;;;;;9.25;4.15;;;22.70;99.90;;;;;;5064404;28;20355;-72
2021/08/11 06:55:17;;;;;;;8.20;5.03;;;22.70;99.90;;;;;;5064212;28;20025;-72
2021/08/11 06:57:46;;;;;;;10.27;5.15;;;22.70;99.90;;;;;;5063981;28;20033;-72
2021/08/11 07:00:13;;;;;;;8.98;4.68;;;23.00;99.90;;;;;;5064158;28;20424;-72
2021/08/11 07:02:38;;;;;;;6.15;4.28;;;23.20;99.50;;;;;;5064424;28;20486;-73
2021/08/11 07:05:05;;;;;;;7.22;5.43;;;23.40;99.60;;;;;;5064344;28;20033;-72
2021/08/11 07:07:31;;;;;;;9.10;4.93;;;23.50;99.50;;;;;;5064285;28;20032;-73
2021/08/11 07:09:58;;;;;;;8.10;5.35;;;23.80;99.20;;;;;;5063847;28;20114;-72
2021/08/11 07:12:24;;;;;;;9.40;4.88;;;24.10;98.90;;;;;;5063877;28;20062;-72
2021/08/11 07:14:49;;;;;;;7.88;4.63;;;24.70;98.20;;;;;;5064119;28;20056;-73
2021/08/11 07:17:16;;;;;;;8.73;5.22;;;25.70;96.70;;;;;;5064360;28;20063;-73
2021/08/11 07:19:41;;;;;;;7.38;4.40;;;26.70;95.00;;;;;;5063760;28;20033;-73
2021/08/11 07:22:09;;;;;;;6.85;5.00;;;27.70;94.30;;;;;;5063619;28;20078;-72
2021/08/11 07:24:35;;;;;;;8.63;5.13;;;29.10;93.40;;;;;;5063054;28;20016;-74
2021/08/11 07:27:02;;;;;;;9.90;4.72;;;29.90;93.00;;;;;;5057903;28;20040;-74
2021/08/11 07:29:28;;;;;;;8.73;4.30;;;30.00;92.10;;;;;;5048137;28;20075;-73
2021/08/11 07:31:53;;;;;;;9.77;4.82;;;30.20;91.70;;;;;;5042423;28;20401;-74
2021/08/11 07:34:19;;;;;;;8.93;5.03;;;30.20;91.40;;;;;;5042749;28;20116;-75
2021/08/11 07:36:45;;;;;;;13.95;4.90;;;30.40;91.50;;;;;;5043173;28;20067;-74
2021/08/11 07:39:11;;;;;;;11.40;5.00;;;30.50;91.30;;;;;;5058935;28;20443;-74
2021/08/11 07:41:36;;;;;;;32.25;7.80;;;30.60;91.10;;;;;;5062629;28;20025;-74
2021/08/11 07:44:02;;;;;;;6.60;5.03;;;31.10;91.00;;;;;;5062295;28;20496;-74
2021/08/11 07:46:28;;;;;;;5.97;3.80;;;30.60;90.50;;;;;;5063622;28;20036;-74
2021/08/11 07:48:54;;;;;;;8.95;4.97;;;30.10;90.90;;;;;;5063421;28;20025;-74
2021/08/11 07:51:20;;;;;;;19.70;6.32;;;30.40;90.70;;;;;;5063473;28;20028;-74
2021/08/11 07:53:46;;;;;;;11.07;5.28;;;29.00;91.60;;;;;;5063964;28;20040;-75
2021/08/11 07:56:12;;;;;;;6.00;4.72;;;26.50;94.20;;;;;;5064750;28;20061;-75
2021/08/11 07:58:38;;;;;;;8.48;5.13;;;25.50;95.40;;;;;;5063838;28;20056;-75
2021/08/11 08:01:03;;;;;;;8.23;5.55;;;24.90;96.20;;;;;;5064042;28;20044;-75
2021/08/11 08:03:29;;;;;;;9.07;4.55;;;24.40;97.10;;;;;;5064015;28;20039;-75
2021/08/11 08:05:55;;;;;;;13.40;5.22;;;24.20;97.50;;;;;;5064389;28;20036;-75
2021/08/11 08:08:20;;;;;;;12.02;4.93;;;24.10;97.40;;;;;;5063549;28;20068;-75
2021/08/11 08:10:46;;;;;;;8.10;5.15;;;24.20;97.70;;;;;;5063898;28;20035;-75
2021/08/11 08:13:12;;;;;;;7.55;4.90;;;24.00;97.70;;;;;;5063913;28;20040;-75
2021/08/11 08:15:38;;;;;;;9.80;5.07;;;23.90;97.70;;;;;;5064266;28;20387;-75
2021/08/11 08:18:03;;;;;;;9.10;5.43;;;24.10;97.80;;;;;;5064038;28;20025;-74
2021/08/11 08:20:30;;;;;;;10.57;5.53;;;24.00;97.70;;;;;;5063740;28;20446;-74
2021/08/11 08:22:56;;;;;;;13.48;6.45;;;23.80;97.80;;;;;;5064149;28;20032;-75
2021/08/11 08:25:23;;;;;;;11.55;5.43;;;24.00;98.50;;;;;;5063663;28;20025;-74
2021/08/11 08:27:53;;;;;;;9.23;4.90;;;24.50;97.30;;;;;;5063780;28;20032;-75
2021/08/11 08:30:20;;;;;;;10.77;5.28;;;25.70;96.10;;;;;;5063939;28;20028;-74
2021/08/11 08:32:46;;;;;;;10.38;5.40;;;27.10;94.80;;;;;;5063857;28;20032;-75
2021/08/11 08:35:12;;;;;;;11.95;5.75;;;27.90;93.80;;;;;;5050955;28;20024;-75
2021/08/11 08:37:39;;;;;;;7.95;5.38;;;28.40;93.60;;;;;;5045995;28;20044;-75
2021/08/11 08:40:07;;;;;;;12.55;6.03;;;28.50;94.20;;;;;;5045922;28;20079;-74
2021/08/11 08:42:33;;;;;;;13.45;5.40;;;28.40;93.80;;;;;;5045951;28;20663;-75
2021/08/11 08:45:00;;;;;;;12.68;5.93;;;28.10;94.10;;;;;;5045684;28;20048;-75
2021/08/11 08:47:27;;;;;;;8.52;5.47;;;28.80;93.50;;;;;;5045583;28;20141;-75
2021/08/11 08:49:52;;;;;;;16.55;5.95;;;28.40;93.50;;;;;;5045456;28;20029;-74
2021/08/11 08:52:20;;;;;;;9.93;5.70;;;27.90;94.10;;;;;;5045656;28;20029;-74
2021/08/11 08:54:46;;;;;;;8.02;5.25;;;27.30;93.90;;;;;;5047235;28;20554;-75
2021/08/11 08:57:14;;;;;;;11.40;5.20;;;26.90;94.40;;;;;;5047130;28;20025;-75
2021/08/11 08:59:43;;;;;;;10.52;6.15;;;27.00;94.80;;;;;;5046975;28;20129;-74
2021/08/11 09:02:11;;;;;;;10.98;5.95;;;26.60;95.30;;;;;;5046904;28;20025;-74
2021/08/11 09:04:37;;;;;;;12.15;6.40;;;26.40;95.60;;;;;;5047112;28;20029;-74
2021/08/11 09:07:10;;;;;;;8.10;5.20;;;26.20;95.80;;;;;;5046600;28;20078;-75
2021/08/11 09:09:37;;;;;;;7.90;5.15;;;25.80;95.80;;;;;;5046813;28;20084;-74
2021/08/11 09:12:16;;;;;;;9.70;5.00;;;26.10;96.40;;;;;;5047159;28;20060;-75
2021/08/11 09:14:45;;;;;;;10.15;5.25;;;26.20;95.40;;;;;;5046809;28;20055;-75
2021/08/11 09:17:37;;;;;;;10.43;5.20;;;25.90;95.20;;;;;;5046817;28;20025;-75
2021/08/11 09:20:07;;;;;;;8.55;4.93;;;25.90;96.10;;;;;;5047009;28;20466;-75
2021/08/11 09:22:48;;;;;;;8.60;5.75;;;25.70;95.20;;;;;;5046842;28;20021;-75
2021/08/11 09:25:14;;;;;;;8.77;5.20;;;26.20;96.10;;;;;;5046552;28;20040;-75
2021/08/11 09:27:42;;;;;;;8.80;5.57;;;26.10;95.70;;;;;;5046710;28;20072;-74
2021/08/11 09:30:15;;;;;;;7.50;5.35;;;26.50;95.40;;;;;;5046391;28;20047;-75
2021/08/11 09:32:55;;;;;;;9.73;5.80;;;26.70;95.10;;;;;;5046645;28;20545;-75
2021/08/11 09:35:34;;;;;;;17.00;6.45;;;26.70;94.90;;;;;;5046644;28;20033;-74
2021/08/11 09:38:06;;;;;;;8.80;4.88;;;26.60;96.00;;;;;;5046592;28;20052;-75
2021/08/11 09:40:34;;;;;;;11.38;5.20;;;26.60;95.10;;;;;;5046372;28;20029;-75
2021/08/11 09:43:00;;;;;;;11.55;5.60;;;26.40;94.80;;;;;;5046161;28;20021;-75
2021/08/11 09:45:40;;;;;;;21.33;5.72;;;26.30;95.10;;;;;;5046035;28;20040;-75
2021/08/11 09:48:06;;;;;;;13.68;6.38;;;26.30;94.90;;;;;;5045973;28;20113;-75
2021/08/11 09:50:46;;;;;;;9.73;5.95;;;26.40;95.40;;;;;;5046262;28;20907;-75
2021/08/11 09:53:32;;;;;;;10.77;5.97;;;27.10;95.70;;;;;;5045367;28;20033;-75
2021/08/11 09:56:05;;;;;;;11.13;5.75;;;27.40;94.90;;;;;;5045741;28;20666;-75
2021/08/11 09:58:38;;;;;;;9.25;4.93;;;27.70;94.70;;;;;;5045306;28;20394;-75
2021/08/11 10:01:05;;;;;;;10.30;5.53;;;27.70;94.20;;;;;;5045199;28;20059;-75
2021/08/11 10:03:32;;;;;;;18.08;5.68;;;27.60;94.80;;;;;;5045113;28;20025;-75
2021/08/11 10:05:58;;;;;;;10.77;5.20;;;27.60;95.10;;;;;;5045395;28;20028;-75
2021/08/11 10:08:29;;;;;;;10.60;5.03;;;27.90;94.50;;;;;;5044830;28;20074;-75
2021/08/11 10:10:55;;;;;;;11.38;5.47;;;27.70;94.00;;;;;;5045428;28;20039;-75
2021/08/11 10:13:22;;;;;;;9.25;5.40;;;27.40;95.80;;;;;;5045496;28;20131;-75
2021/08/11 10:15:48;;;;;;;12.15;5.72;;;27.50;94.30;;;;;;5045244;28;20028;-75
2021/08/11 10:18:21;;;;;;;8.68;5.32;;;27.60;94.20;;;;;;5045174;28;20109;-75
2021/08/11 10:20:48;;;;;;;10.97;5.97;;;28.00;94.60;;;;;;5044889;28;20051;-75
2021/08/11 10:23:19;;;;;;;13.82;5.00;;;28.10;94.30;;;;;;5044461;28;20021;-75
2021/08/11 10:25:46;;;;;;;7.70;5.35;;;28.00;94.20;;;;;;5044754;28;20053;-75
2021/08/11 10:28:12;;;;;;;6.70;4.57;;;28.20;93.80;;;;;;5044614;28;20501;-75
2021/08/11 10:30:38;;;;;;;10.15;6.28;;;28.30;94.10;;;;;;5044917;28;20033;-75
2021/08/11 10:33:05;;;;;;;10.38;5.53;;;28.10;93.50;;;;;;5044889;28;20122;-75
2021/08/11 10:35:32;;;;;;;6.85;4.70;;;28.00;93.70;;;;;;5045501;28;20044;-75
2021/08/11 10:37:59;;;;;;;9.25;4.97;;;28.20;93.20;;;;;;5060891;28;20067;-75
2021/08/11 10:40:25;;;;;;;9.95;4.63;;;28.30;93.10;;;;;;5063083;28;20651;-74
2021/08/11 10:42:56;;;;;;;8.70;5.50;;;28.10;93.30;;;;;;5062827;28;20108;-75
2021/08/11 10:45:24;;;;;;;8.77;5.18;;;28.20;93.10;;;;;;5062768;28;20028;-75
2021/08/11 10:47:50;;;;;;;6.78;5.07;;;28.20;93.10;;;;;;5063080;28;20028;-75
2021/08/11 10:50:16;;;;;;;8.80;4.50;;;28.40;93.50;;;;;;5062820;28;20020;-75
2021/08/11 10:52:42;;;;;;;6.93;4.65;;;28.70;93.10;;;;;;5062516;28;20032;-74
2021/08/11 10:55:08;;;;;;;7.63;5.18;;;28.60;93.00;;;;;;5063643;28;20385;-75
2021/08/11 10:57:36;;;;;;;7.15;4.70;;;28.50;93.80;;;;;;5064052;28;20032;-75
2021/08/11 11:00:25;;;;;;;8.98;5.38;;;28.80;93.70;;;;;;5064133;28;20111;-75
2021/08/11 11:02:52;;;;;;;10.35;4.78;;;28.70;93.30;;;;;;5047072;28;20048;-75
2021/08/11 11:05:21;;;;;;;10.15;4.97;;;28.90;94.30;;;;;;5064133;28;20145;-75
2021/08/11 11:08:09;;;;;;;11.05;4.57;;;29.00;93.60;;;;;;5063923;28;20142;-75
2021/08/11 11:10:35;;;;;;;10.80;5.72;;;29.00;92.70;;;;;;5064193;28;20154;-75
2021/08/11 11:13:21;;;;;;;7.15;5.05;;;29.10;93.40;;;;;;5064121;28;20043;-75
2021/08/11 11:15:47;;;;;;;10.50;4.80;;;29.30;94.10;;;;;;5064168;28;20033;-75
2021/08/11 11:18:20;;;;;;;11.02;5.40;;;29.20;93.10;;;;;;5063743;28;20031;-75
2021/08/11 11:20:47;;;;;;;6.95;4.78;;;29.10;93.10;;;;;;5063982;28;20031;-75
2021/08/11 11:23:43;;;;;;;7.85;4.78;;;29.30;92.50;;;;;;5063983;28;20424;-75
2021/08/11 11:26:14;;;;;;;10.52;5.03;;;29.20;92.40;;;;;;5063874;28;20027;-75
2021/08/11 11:29:00;;;;;;;9.35;5.28;;;29.10;93.70;;;;;;5063581;28;20024;-75
2021/08/11 11:31:29;;;;;;;6.32;4.47;;;29.40;93.40;;;;;;5063789;28;20020;-75
2021/08/11 11:34:18;;;;;;;9.18;4.65;;;29.50;93.80;;;;;;5063589;28;20107;-75
2021/08/11 11:37:04;;;;;;;11.15;4.85;;;29.60;93.10;;;;;;5063280;28;20052;-75
2021/08/11 11:39:40;;;;;;;8.43;5.28;;;29.70;92.60;;;;;;5045700;28;20048;-75
2021/08/11 11:42:08;;;;;;;9.57;4.72;;;29.50;92.10;;;;;;5063425;28;20140;-75
2021/08/11 11:44:59;;;;;;;8.05;4.47;;;29.70;92.60;;;;;;5063388;28;20096;-75
2021/08/11 11:47:41;;;;;;;16.45;5.03;;;29.70;92.30;;;;;;5063196;28;20025;-75
2021/08/11 11:50:22;;;;;;;10.35;5.00;;;29.90;92.30;;;;;;5045238;28;20024;-75
2021/08/11 11:53:10;;;;;;;7.50;4.95;;;29.80;91.60;;;;;;5063794;28;20052;-75
2021/08/11 11:55:35;;;;;;;6.70;4.65;;;29.80;93.30;;;;;;5063496;28;20566;-75
2021/08/11 11:58:06;;;;;;;10.77;4.85;;;30.10;92.30;;;;;;5063577;28;20115;-75
2021/08/11 12:00:32;;;;;;;7.85;5.10;;;30.10;92.80;;;;;;5063519;28;20505;-75
2021/08/11 12:02:58;;;;;;;9.32;5.00;;;30.10;92.50;;;;;;5063704;28;20021;-75
2021/08/11 12:05:24;;;;;;;6.60;5.05;;;30.20;92.90;;;;;;5062980;28;20017;-75
2021/08/11 12:07:50;;;;;;;9.88;4.97;;;30.40;93.10;;;;;;5063418;28;20597;-75
2021/08/11 12:10:27;;;;;;;6.88;4.22;;;30.50;92.60;;;;;;5065541;28;20048;-75
2021/08/11 12:12:59;;;;;;;8.75;5.18;;;30.30;93.30;;;;;;5067306;28;20029;-75
2021/08/11 12:15:27;;;;;;;9.32;4.97;;;30.20;91.60;;;;;;5048973;28;20394;-75
2021/08/11 12:17:56;;;;;;;7.90;4.45;;;30.20;92.40;;;;;;5067229;28;20112;-75
2021/08/11 12:20:28;;;;;;;6.38;4.50;;;30.20;93.30;;;;;;5067030;28;20036;-75
2021/08/11 12:22:53;;;;;;;6.70;4.63;;;30.20;91.70;;;;;;5067094;28;20050;-75
2021/08/11 12:25:27;;;;;;;9.48;4.60;;;30.20;92.10;;;;;;5067181;28;20460;-75
2021/08/11 12:28:10;;;;;;;10.85;4.72;;;30.00;92.20;;;;;;5067007;28;20070;-75
2021/08/11 12:30:39;;;;;;;6.35;4.72;;;30.20;93.60;;;;;;5066917;28;20024;-75
2021/08/11 12:33:05;;;;;;;6.10;4.50;;;30.60;93.60;;;;;;5066930;28;20028;-75
2021/08/11 12:35:31;;;;;;;8.57;5.10;;;30.70;92.40;;;;;;5066560;28;20082;-75
2021/08/11 12:37:57;;;;;;;7.47;5.13;;;30.60;92.60;;;;;;5061360;28;20032;-75
2021/08/11 12:40:34;;;;;;;8.13;4.53;;;30.70;92.30;;;;;;5066151;28;20203;-75
2021/08/11 12:43:01;;;;;;;10.52;4.82;;;30.50;92.40;;;;;;5065453;28;20120;-75
2021/08/11 12:45:44;;;;;;;7.65;4.70;;;30.40;92.80;;;;;;5065215;28;20028;-75
2021/08/11 12:48:27;;;;;;;9.93;4.63;;;30.40;93.00;;;;;;5065666;28;20021;-75
2021/08/11 12:50:54;;;;;;;8.73;4.57;;;30.60;92.80;;;;;;5065183;28;20029;-75
2021/08/11 12:53:38;;;;;;;7.50;5.05;;;30.90;92.60;;;;;;5064941;28;20032;-75